Time;durP1;ratioP1;P1;durP2;ratioP2;P2;SDS_P1;SDS_P2;PMS_P1;PMS_P2;Temp;Humidity;BMP_temperature;BMP_pressure;BME280_temperature;BME280_humidity;BME280_pressure;Samples;Min_cycle;Max_cycle;Signal;HPM_P1;HPM_P2
2021/11/28 00:00:27;;;;;;;17.33;10.77;;;3.00;99.90;;;;;;5080986;28;20384;-55
2021/11/28 00:02:54;;;;;;;15.55;8.88;;;2.90;99.90;;;;;;5079763;28;20392;-54
2021/11/28 00:05:22;;;;;;;15.60;9.90;;;3.40;99.90;;;;;;5086464;28;20378;-54
2021/11/28 00:08:04;;;;;;;14.52;9.40;;;2.80;99.90;;;;;;5082698;28;20424;-54
2021/11/28 00:13:07;;;;;;;16.20;9.30;;;3.70;99.90;;;;;;5080113;28;20435;-53
2021/11/28 00:15:34;;;;;;;15.68;9.70;;;2.70;99.90;;;;;;5082772;28;20401;-54
2021/11/28 00:18:00;;;;;;;18.27;9.75;;;2.80;99.90;;;;;;5081396;28;20458;-54
2021/11/28 00:20:25;;;;;;;14.63;9.50;;;3.10;99.90;;;;;;5080424;28;20467;-57
2021/11/28 00:22:51;;;;;;;18.33;10.57;;;2.80;99.90;;;;;;5078260;28;20455;-54
2021/11/28 00:25:19;;;;;;;15.63;9.40;;;3.90;99.90;;;;;;5081951;28;20931;-54
2021/11/28 00:27:47;;;;;;;15.27;8.63;;;2.70;99.90;;;;;;5069890;28;20392;-53
2021/11/28 00:30:18;;;;;;;15.75;9.93;;;4.10;99.90;;;;;;5072642;28;20438;-53
2021/11/28 00:32:45;;;;;;;17.70;10.10;;;2.60;99.90;;;;;;5089901;28;20409;-54
2021/11/28 00:35:11;;;;;;;16.20;9.20;;;2.50;99.90;;;;;;5090976;28;20430;-54
2021/11/28 00:37:37;;;;;;;17.45;9.52;;;2.50;99.90;;;;;;5090206;28;20909;-54
2021/11/28 00:40:03;;;;;;;18.08;10.75;;;2.50;99.90;;;;;;5072636;28;20948;-54
2021/11/28 00:42:29;;;;;;;17.70;11.00;;;2.50;99.90;;;;;;5090118;28;20744;-54
2021/11/28 00:44:55;;;;;;;20.83;12.57;;;2.60;99.90;;;;;;5072671;28;20397;-54
2021/11/28 00:47:20;;;;;;;16.40;10.80;;;2.70;99.90;;;;;;5072607;28;20390;-54
2021/11/28 00:49:51;;;;;;;31.05;17.38;;;3.80;99.90;;;;;;5090053;28;20370;-54
2021/11/28 00:52:17;;;;;;;16.70;9.95;;;2.60;99.90;;;;;;5090816;28;20410;-54
2021/11/28 00:54:43;;;;;;;20.38;12.70;;;3.00;99.90;;;;;;5071922;28;20433;-53
2021/11/28 00:57:08;;;;;;;15.63;9.30;;;2.60;99.90;;;;;;5090747;28;20423;-53
2021/11/28 00:59:34;;;;;;;16.45;7.47;;;2.50;99.90;;;;;;5090164;28;20467;-54
2021/11/28 01:02:00;;;;;;;14.40;8.10;;;4.20;99.90;;;;;;5090399;28;20472;-53
2021/11/28 01:04:26;;;;;;;12.40;6.40;;;2.60;99.90;;;;;;5090313;28;20546;-58
2021/11/28 01:06:52;;;;;;;15.98;9.95;;;2.60;99.90;;;;;;5090574;28;20413;-53
2021/11/28 01:09:19;;;;;;;11.48;5.88;;;2.80;99.90;;;;;;5072518;28;20405;-54
2021/11/28 01:11:45;;;;;;;12.50;6.18;;;2.80;99.90;;;;;;5089054;28;20421;-54
2021/11/28 01:14:11;;;;;;;12.25;6.82;;;2.90;99.90;;;;;;5090544;28;20580;-54
2021/11/28 01:16:37;;;;;;;11.73;6.22;;;3.00;99.90;;;;;;5089552;28;20374;-54
2021/11/28 01:19:04;;;;;;;12.77;6.00;;;3.10;99.90;;;;;;5072116;28;20752;-53
2021/11/28 01:21:31;;;;;;;11.80;6.20;;;4.40;99.90;;;;;;5089184;28;20493;-54
2021/11/28 01:23:57;;;;;;;12.13;5.60;;;3.10;99.90;;;;;;5089989;28;20401;-53
2021/11/28 01:26:22;;;;;;;8.20;4.93;;;4.80;99.90;;;;;;5090086;28;20832;-53
2021/11/28 01:28:49;;;;;;;11.43;5.40;;;3.10;99.90;;;;;;5089235;28;20975;-53
2021/11/28 01:31:15;;;;;;;11.45;5.75;;;4.40;99.90;;;;;;5090195;28;20410;-54
2021/11/28 01:33:42;;;;;;;10.70;5.60;;;3.00;99.90;;;;;;5088899;28;20473;-54
2021/11/28 01:36:07;;;;;;;9.93;5.20;;;3.00;99.90;;;;;;5089505;28;20883;-54
2021/11/28 01:38:33;;;;;;;12.02;6.03;;;2.90;99.90;;;;;;5089007;28;20477;-53
2021/11/28 01:40:59;;;;;;;10.67;5.40;;;3.40;99.90;;;;;;5089549;28;20507;-53
2021/11/28 01:43:25;;;;;;;10.50;5.70;;;2.90;99.90;;;;;;5071543;28;20548;-53
2021/11/28 01:45:53;;;;;;;9.82;5.15;;;3.00;99.90;;;;;;5088891;28;20409;-54
2021/11/28 01:48:20;;;;;;;10.82;5.10;;;3.10;99.90;;;;;;5088549;28;20413;-53
2021/11/28 01:50:48;;;;;;;11.38;5.07;;;3.00;99.90;;;;;;5088959;28;20410;-54
2021/11/28 01:53:21;;;;;;;12.13;5.35;;;3.00;99.90;;;;;;5089822;28;20434;-53
2021/11/28 01:55:48;;;;;;;9.57;4.93;;;3.10;99.90;;;;;;5088614;28;21243;-53
2021/11/28 01:58:14;;;;;;;8.30;4.55;;;3.10;99.90;;;;;;5089869;28;20374;-53
2021/11/28 02:00:45;;;;;;;10.13;4.90;;;3.10;99.90;;;;;;5088830;28;20382;-54
2021/11/28 02:03:15;;;;;;;9.73;4.57;;;4.30;99.90;;;;;;5090069;28;20839;-53
2021/11/28 02:05:45;;;;;;;8.35;4.70;;;3.10;99.90;;;;;;5088864;28;20377;-53
2021/11/28 02:08:10;;;;;;;13.03;5.33;;;3.20;99.90;;;;;;5089673;28;20505;-54
2021/11/28 02:10:36;;;;;;;11.83;6.30;;;3.20;99.90;;;;;;5070748;28;21070;-54
2021/11/28 02:13:03;;;;;;;11.32;5.90;;;3.20;99.90;;;;;;5089554;28;20411;-53
2021/11/28 02:15:28;;;;;;;10.17;5.30;;;3.30;99.90;;;;;;5089473;28;20389;-57
2021/11/28 02:17:56;;;;;;;10.43;6.30;;;3.30;99.90;;;;;;5089069;28;20374;-53
2021/11/28 02:20:25;;;;;;;11.27;6.00;;;3.30;99.90;;;;;;5089505;28;20469;-54
2021/11/28 02:22:54;;;;;;;10.32;6.70;;;3.40;99.90;;;;;;5088689;28;20610;-54
2021/11/28 02:25:20;;;;;;;13.00;7.57;;;3.30;99.90;;;;;;5089353;28;20381;-54
2021/11/28 02:27:46;;;;;;;14.67;8.50;;;3.20;99.90;;;;;;5088363;28;20386;-53
2021/11/28 02:30:17;;;;;;;15.13;9.57;;;3.10;99.90;;;;;;5089312;28;20871;-53
2021/11/28 02:32:43;;;;;;;17.98;9.93;;;3.10;99.90;;;;;;5088541;28;20556;-53
2021/11/28 02:35:09;;;;;;;13.70;8.90;;;3.20;99.90;;;;;;5089289;28;20379;-53
2021/11/28 02:37:34;;;;;;;16.55;10.85;;;3.00;99.90;;;;;;5088531;28;20470;-54
2021/11/28 02:40:00;;;;;;;15.60;9.80;;;4.50;99.90;;;;;;5071126;28;20479;-53
2021/11/28 02:42:26;;;;;;;15.77;10.30;;;2.90;99.90;;;;;;5089122;28;20473;-53
2021/11/28 02:44:52;;;;;;;15.82;10.40;;;2.90;99.90;;;;;;5088482;28;20370;-54
2021/11/28 02:47:21;;;;;;;15.50;9.73;;;3.00;99.90;;;;;;5073821;28;20862;-53
2021/11/28 02:49:47;;;;;;;17.00;10.88;;;3.00;99.90;;;;;;5074052;28;20408;-53
2021/11/28 02:52:13;;;;;;;16.25;10.82;;;4.20;99.90;;;;;;5092720;28;20863;-53
2021/11/28 02:54:39;;;;;;;17.05;10.30;;;3.00;99.90;;;;;;5092246;28;20844;-54
2021/11/28 02:57:08;;;;;;;17.58;9.93;;;4.00;99.90;;;;;;5092972;28;20375;-54
2021/11/28 02:59:34;;;;;;;16.80;10.32;;;3.30;99.90;;;;;;5092395;28;20409;-58
2021/11/28 03:01:59;;;;;;;15.20;9.60;;;4.90;99.90;;;;;;5092584;28;20413;-54
2021/11/28 03:04:25;;;;;;;15.55;9.48;;;3.30;99.90;;;;;;5092953;28;20370;-54
2021/11/28 03:06:51;;;;;;;17.77;9.55;;;3.80;99.90;;;;;;5092219;28;20382;-54
2021/11/28 03:09:16;;;;;;;15.10;9.70;;;3.60;99.90;;;;;;5074282;28;20382;-55
2021/11/28 03:11:42;;;;;;;14.60;9.60;;;3.30;99.90;;;;;;5091562;28;20598;-54
2021/11/28 03:14:08;;;;;;;15.73;9.57;;;4.80;99.90;;;;;;5092866;28;20762;-54
2021/11/28 03:16:34;;;;;;;14.70;9.00;;;3.30;99.90;;;;;;5092069;28;20451;-58
2021/11/28 03:19:00;;;;;;;11.60;6.30;;;4.40;99.90;;;;;;5092024;28;20790;-54
2021/11/28 03:21:29;;;;;;;12.57;7.17;;;3.20;99.90;;;;;;5074267;28;20782;-54
2021/11/28 03:23:57;;;;;;;14.68;8.65;;;3.20;99.90;;;;;;5091559;28;20730;-54
2021/11/28 03:26:25;;;;;;;14.65;8.50;;;3.30;99.90;;;;;;5092172;28;20397;-55
2021/11/28 03:28:58;;;;;;;12.13;7.80;;;3.30;99.90;;;;;;5091533;28;20382;-54
2021/11/28 03:31:26;;;;;;;11.30;6.40;;;4.30;99.90;;;;;;5092188;28;20406;-54
2021/11/28 03:33:53;;;;;;;12.50;6.93;;;3.10;99.90;;;;;;5091547;28;20382;-53
2021/11/28 03:36:21;;;;;;;10.88;6.20;;;4.30;99.90;;;;;;5090836;28;20401;-54
2021/11/28 03:38:48;;;;;;;10.30;5.93;;;3.10;99.90;;;;;;5090842;28;20461;-54
2021/11/28 03:41:16;;;;;;;9.45;5.50;;;3.00;99.90;;;;;;5091857;28;20564;-54
2021/11/28 03:43:43;;;;;;;8.52;4.22;;;3.90;99.90;;;;;;5091186;28;20378;-54
2021/11/28 03:46:09;;;;;;;9.52;4.68;;;4.10;99.90;;;;;;5092133;28;20375;-54
2021/11/28 03:48:35;;;;;;;7.57;4.40;;;2.80;99.90;;;;;;5091571;28;20473;-58
2021/11/28 03:51:03;;;;;;;9.15;5.20;;;3.60;99.90;;;;;;5091343;28;20552;-54
2021/11/28 03:53:30;;;;;;;8.70;4.60;;;2.80;99.90;;;;;;5092288;28;20461;-54
2021/11/28 03:56:00;;;;;;;10.85;5.07;;;2.90;99.90;;;;;;5090889;28;20378;-53
2021/11/28 03:58:26;;;;;;;9.43;4.15;;;2.90;99.90;;;;;;5073685;28;20811;-54
2021/11/28 04:00:51;;;;;;;11.60;4.90;;;2.90;99.90;;;;;;5090925;28;20473;-54
2021/11/28 04:03:17;;;;;;;9.70;4.87;;;3.00;99.90;;;;;;5091432;28;20417;-54
2021/11/28 04:05:43;;;;;;;9.27;4.32;;;3.10;99.90;;;;;;5090701;28;20465;-54
2021/11/28 04:08:09;;;;;;;9.10;4.10;;;3.10;99.90;;;;;;5091321;28;20374;-54
2021/11/28 04:10:34;;;;;;;10.55;4.70;;;3.20;99.90;;;;;;5091181;28;20482;-54
2021/11/28 04:13:00;;;;;;;9.73;4.40;;;3.20;99.90;;;;;;5076426;28;20773;-56
2021/11/28 04:15:26;;;;;;;11.87;6.03;;;3.20;99.90;;;;;;5071133;28;20387;-54
2021/11/28 04:17:51;;;;;;;14.47;6.40;;;3.40;99.90;;;;;;5070782;28;20391;-53
2021/11/28 04:20:17;;;;;;;10.68;5.40;;;3.50;99.90;;;;;;5052696;28;20480;-53
2021/11/28 04:22:43;;;;;;;14.40;7.30;;;4.10;99.90;;;;;;5070535;28;20778;-54
2021/11/28 04:25:11;;;;;;;10.50;5.57;;;3.40;99.90;;;;;;5071064;28;20402;-53
2021/11/28 04:27:37;;;;;;;10.68;5.80;;;3.40;99.90;;;;;;5070953;28;20372;-58
2021/11/28 04:30:05;;;;;;;8.70;4.80;;;3.90;99.90;;;;;;5070444;28;20384;-53
2021/11/28 04:32:31;;;;;;;9.60;4.63;;;3.20;99.90;;;;;;5070766;28;20419;-54
2021/11/28 04:34:57;;;;;;;9.90;4.45;;;3.20;99.90;;;;;;5069966;28;20376;-54
2021/11/28 04:37:23;;;;;;;9.48;5.43;;;2.90;99.90;;;;;;5070621;28;20376;-53
2021/11/28 04:39:49;;;;;;;9.63;5.00;;;3.00;99.90;;;;;;5069693;28;20746;-54
2021/11/28 04:42:15;;;;;;;8.82;5.18;;;3.00;99.90;;;;;;5052896;28;20395;-53
2021/11/28 04:44:41;;;;;;;10.30;5.18;;;2.90;99.90;;;;;;5069832;28;20388;-58
2021/11/28 04:47:06;;;;;;;9.63;4.95;;;3.00;99.90;;;;;;5070762;28;20891;-53
2021/11/28 04:49:32;;;;;;;8.73;4.73;;;3.00;99.90;;;;;;5070426;28;20788;-54
2021/11/28 04:51:58;;;;;;;10.97;6.10;;;3.00;99.90;;;;;;5069718;28;21164;-54
2021/11/28 04:54:24;;;;;;;9.90;5.65;;;3.20;99.90;;;;;;5070473;28;20920;-54
2021/11/28 04:56:50;;;;;;;9.15;5.15;;;4.70;99.90;;;;;;5069642;28;20372;-53
2021/11/28 04:59:16;;;;;;;11.33;5.10;;;3.00;99.90;;;;;;5070467;28;20384;-53
2021/11/28 05:01:42;;;;;;;10.43;5.40;;;3.10;99.90;;;;;;5069637;28;20845;-57
2021/11/28 05:04:08;;;;;;;9.43;5.25;;;3.10;99.90;;;;;;5070151;28;20387;-53
2021/11/28 05:06:33;;;;;;;8.70;5.05;;;3.20;99.90;;;;;;5067049;28;20389;-53
2021/11/28 05:08:59;;;;;;;9.47;5.10;;;3.20;99.90;;;;;;5069099;28;21016;-53
2021/11/28 05:11:25;;;;;;;9.65;4.70;;;3.30;99.90;;;;;;5070871;28;20529;-53
2021/11/28 05:13:50;;;;;;;9.30;4.30;;;3.20;99.90;;;;;;5089645;28;20382;-53
2021/11/28 05:16:16;;;;;;;10.90;4.90;;;3.20;99.90;;;;;;5090549;28;20879;-53
2021/11/28 05:18:42;;;;;;;8.90;4.30;;;4.40;99.90;;;;;;5089954;28;20457;-58
2021/11/28 05:21:07;;;;;;;8.63;4.27;;;3.30;99.90;;;;;;5089895;28;20408;-53
2021/11/28 05:23:33;;;;;;;7.63;4.22;;;3.30;99.90;;;;;;5090363;28;20388;-54
2021/11/28 05:25:59;;;;;;;8.40;4.20;;;3.90;99.90;;;;;;5088741;28;20489;-54
2021/11/28 05:28:24;;;;;;;8.52;3.80;;;4.50;99.90;;;;;;5089639;28;20812;-54
2021/11/28 05:30:50;;;;;;;10.00;4.88;;;3.30;99.90;;;;;;5089243;28;20374;-54
2021/11/28 05:33:16;;;;;;;9.40;4.10;;;4.70;99.90;;;;;;5089929;28;20467;-54
2021/11/28 05:35:42;;;;;;;9.20;4.20;;;3.30;99.90;;;;;;5089832;28;20386;-58
2021/11/28 05:38:07;;;;;;;8.75;4.13;;;3.20;99.90;;;;;;5089450;28;20847;-53
2021/11/28 05:40:33;;;;;;;8.50;4.10;;;4.00;99.90;;;;;;5090063;28;20393;-54
2021/11/28 05:42:59;;;;;;;9.00;4.00;;;3.30;99.90;;;;;;5089325;28;20386;-54
2021/11/28 05:45:26;;;;;;;8.68;4.00;;;3.30;99.90;;;;;;5089912;28;20755;-54
2021/11/28 05:47:52;;;;;;;9.35;4.68;;;3.30;99.90;;;;;;5088211;28;20382;-54
2021/11/28 05:50:21;;;;;;;8.53;4.10;;;3.30;99.90;;;;;;5068362;28;20599;-54
2021/11/28 05:52:48;;;;;;;8.93;4.20;;;3.40;99.90;;;;;;5083508;28;20454;-54
2021/11/28 05:55:14;;;;;;;8.35;4.30;;;3.40;99.90;;;;;;5088290;28;20394;-54
2021/11/28 05:57:41;;;;;;;8.38;3.80;;;3.30;99.90;;;;;;5089530;28;20370;-54
2021/11/28 06:00:10;;;;;;;9.10;4.50;;;3.30;99.90;;;;;;5089134;28;20381;-54
2021/11/28 06:02:39;;;;;;;8.73;4.32;;;3.20;99.90;;;;;;5090085;28;20975;-53
2021/11/28 06:05:06;;;;;;;9.60;3.97;;;3.40;99.90;;;;;;5088540;28;20477;-54
2021/11/28 06:07:31;;;;;;;8.50;4.22;;;3.40;99.90;;;;;;5089361;28;20957;-53
2021/11/28 06:09:57;;;;;;;8.40;3.90;;;4.60;99.90;;;;;;5074935;28;20403;-54
2021/11/28 06:12:23;;;;;;;12.27;4.35;;;3.40;99.90;;;;;;5069028;28;20438;-54
2021/11/28 06:14:48;;;;;;;8.57;4.30;;;3.30;99.90;;;;;;5068556;28;20415;-53
2021/11/28 06:17:14;;;;;;;10.82;4.72;;;4.30;99.90;;;;;;5076980;28;20391;-53
2021/11/28 06:19:40;;;;;;;8.57;4.20;;;3.30;99.90;;;;;;5089322;28;20736;-53
2021/11/28 06:22:08;;;;;;;11.37;4.20;;;3.20;99.90;;;;;;5090648;28;21034;-53
2021/11/28 06:24:35;;;;;;;8.48;3.92;;;3.30;99.90;;;;;;5093163;28;20447;-54
2021/11/28 06:27:01;;;;;;;9.98;4.40;;;3.30;99.90;;;;;;5092575;28;20484;-53
2021/11/28 06:29:27;;;;;;;9.38;4.20;;;3.40;99.90;;;;;;5093918;28;20906;-55
2021/11/28 06:31:52;;;;;;;8.18;4.03;;;3.40;99.90;;;;;;5092645;28;20398;-54
2021/11/28 06:34:18;;;;;;;9.20;4.03;;;3.50;99.90;;;;;;5093253;28;20911;-54
2021/11/28 06:36:44;;;;;;;8.60;4.30;;;3.60;99.90;;;;;;5093343;28;20904;-57
2021/11/28 06:39:10;;;;;;;9.37;4.47;;;2.30;99.90;;;;;;5092871;28;20374;-53
2021/11/28 06:41:35;;;;;;;7.47;3.75;;;3.60;99.90;;;;;;5093015;28;20810;-53
2021/11/28 06:44:01;;;;;;;9.17;4.80;;;3.50;99.90;;;;;;5074437;28;20402;-53
2021/11/28 06:46:27;;;;;;;9.68;4.38;;;3.40;99.90;;;;;;5093113;28;20393;-53
2021/11/28 06:48:52;;;;;;;9.73;4.68;;;3.30;99.90;;;;;;5092270;28;20385;-54
2021/11/28 06:51:18;;;;;;;9.70;4.63;;;3.30;99.90;;;;;;5093132;28;20762;-54
2021/11/28 06:53:44;;;;;;;9.52;4.80;;;3.20;99.90;;;;;;5093111;28;20413;-53
2021/11/28 06:56:09;;;;;;;8.20;4.47;;;3.10;99.90;;;;;;5092456;28;20370;-54
2021/11/28 06:58:35;;;;;;;9.63;5.10;;;3.00;99.90;;;;;;5092948;28;20381;-54
2021/11/28 07:01:03;;;;;;;10.60;5.03;;;3.00;99.90;;;;;;5092254;28;20456;-54
2021/11/28 07:03:29;;;;;;;9.07;5.10;;;3.00;99.90;;;;;;5088799;28;20402;-55
2021/11/28 07:05:55;;;;;;;11.00;5.80;;;2.80;99.90;;;;;;5063187;28;20402;-54
2021/11/28 07:08:20;;;;;;;12.73;6.80;;;2.80;99.90;;;;;;5079600;28;20396;-54
2021/11/28 07:10:46;;;;;;;13.47;6.30;;;3.80;99.90;;;;;;5088384;28;20393;-57
2021/11/28 07:13:12;;;;;;;10.85;6.65;;;2.80;99.90;;;;;;5091013;28;20413;-53
2021/11/28 07:15:39;;;;;;;11.02;6.28;;;2.80;99.90;;;;;;5072773;28;20380;-53
2021/11/28 07:18:05;;;;;;;11.87;6.90;;;4.00;99.90;;;;;;5089630;28;20394;-54
2021/11/28 07:20:32;;;;;;;11.85;7.20;;;2.80;99.90;;;;;;5092362;28;20890;-53
2021/11/28 07:22:59;;;;;;;11.52;7.10;;;3.80;99.90;;;;;;5062337;28;20730;-53
2021/11/28 07:25:25;;;;;;;14.40;7.38;;;2.80;99.90;;;;;;5068117;28;20743;-53
2021/11/28 07:27:51;;;;;;;12.15;7.80;;;2.70;99.90;;;;;;5091771;28;20378;-58
2021/11/28 07:30:17;;;;;;;15.57;7.20;;;3.50;99.90;;;;;;5092373;28;20412;-53
2021/11/28 07:32:42;;;;;;;12.97;7.70;;;3.90;99.90;;;;;;5091698;28;20418;-54
2021/11/28 07:35:09;;;;;;;16.07;7.60;;;2.80;99.90;;;;;;5090826;28;20455;-54
2021/11/28 07:37:35;;;;;;;15.13;8.27;;;2.90;99.90;;;;;;5092493;28;20381;-53
2021/11/28 07:40:00;;;;;;;14.43;8.10;;;3.70;99.90;;;;;;5091558;28;20390;-53
2021/11/28 07:42:26;;;;;;;15.02;8.90;;;4.10;99.90;;;;;;5074028;28;20386;-54
2021/11/28 07:44:52;;;;;;;15.98;9.50;;;4.60;99.90;;;;;;5091481;28;20375;-58
2021/11/28 07:47:18;;;;;;;14.77;8.80;;;3.00;99.90;;;;;;5091587;28;20374;-54
2021/11/28 07:49:44;;;;;;;14.48;8.93;;;3.00;99.90;;;;;;5091726;28;20378;-53
2021/11/28 07:52:10;;;;;;;15.05;9.38;;;3.10;99.90;;;;;;5090943;28;20441;-53
2021/11/28 07:54:36;;;;;;;16.87;9.53;;;4.10;99.90;;;;;;5092069;28;20478;-53
2021/11/28 07:57:02;;;;;;;18.53;10.47;;;3.00;99.90;;;;;;5090996;28;20390;-53
2021/11/28 07:59:29;;;;;;;19.42;10.40;;;3.10;99.90;;;;;;5092249;28;20454;-53
2021/11/28 08:01:55;;;;;;;21.38;12.57;;;3.20;99.90;;;;;;5090775;28;20386;-54
2021/11/28 08:04:21;;;;;;;16.13;10.25;;;3.30;99.90;;;;;;5091887;28;20382;-53
2021/11/28 08:06:47;;;;;;;16.10;9.73;;;3.40;99.90;;;;;;5073363;28;20413;-53
2021/11/28 08:09:12;;;;;;;16.95;9.25;;;3.30;99.90;;;;;;5091172;28;20452;-53
2021/11/28 08:11:38;;;;;;;17.63;9.32;;;3.20;99.90;;;;;;5091411;28;20440;-54
2021/11/28 08:14:04;;;;;;;14.43;8.63;;;3.80;99.90;;;;;;5081293;28;20884;-54
2021/11/28 08:16:30;;;;;;;13.00;8.33;;;3.10;99.90;;;;;;5071436;28;20380;-53
2021/11/28 08:18:56;;;;;;;14.20;8.30;;;3.20;99.90;;;;;;5070569;28;20382;-55
2021/11/28 08:21:26;;;;;;;14.15;7.90;;;3.30;99.90;;;;;;5071047;28;20379;-54
2021/11/28 08:23:52;;;;;;;14.25;8.30;;;3.80;99.90;;;;;;5071057;28;20395;-58
2021/11/28 08:26:18;;;;;;;13.87;8.50;;;3.40;99.90;;;;;;5052770;28;20749;-53
2021/11/28 08:28:44;;;;;;;12.47;7.83;;;3.40;99.90;;;;;;5070854;28;20413;-54
2021/11/28 08:31:10;;;;;;;13.98;8.10;;;3.80;99.90;;;;;;5070177;28;20487;-53
2021/11/28 08:33:36;;;;;;;11.33;7.47;;;4.80;99.90;;;;;;5071132;28;20924;-54
2021/11/28 08:36:02;;;;;;;13.60;7.50;;;4.90;99.90;;;;;;5070109;28;20749;-55
2021/11/28 08:38:28;;;;;;;12.82;7.40;;;3.60;99.90;;;;;;5070701;28;20429;-53
2021/11/28 08:40:53;;;;;;;14.82;9.07;;;3.80;99.90;;;;;;5070271;28;20399;-59
2021/11/28 08:43:19;;;;;;;14.83;8.77;;;3.80;99.90;;;;;;5085185;28;20398;-54
2021/11/28 08:45:45;;;;;;;14.40;8.40;;;4.00;99.90;;;;;;5090535;28;20377;-54
2021/11/28 08:48:11;;;;;;;12.68;7.68;;;4.10;99.90;;;;;;5089961;28;20374;-55
2021/11/28 08:50:36;;;;;;;12.60;8.15;;;4.20;99.90;;;;;;5090968;28;20743;-54
2021/11/28 08:53:03;;;;;;;14.53;8.23;;;4.30;99.90;;;;;;5089779;28;20462;-55
2021/11/28 08:55:30;;;;;;;13.60;7.80;;;4.50;99.90;;;;;;5090910;28;20934;-54
2021/11/28 08:57:56;;;;;;;13.60;7.85;;;4.40;99.90;;;;;;5089914;28;20383;-59
2021/11/28 09:00:22;;;;;;;12.10;7.75;;;4.40;99.90;;;;;;5072448;28;20885;-54
2021/11/28 09:02:50;;;;;;;13.00;7.70;;;4.40;99.90;;;;;;5090505;28;20496;-54
2021/11/28 09:05:19;;;;;;;12.90;7.60;;;4.40;99.90;;;;;;5089740;28;20526;-54
2021/11/28 09:07:45;;;;;;;14.13;8.05;;;4.30;99.90;;;;;;5088287;28;20394;-54
2021/11/28 09:10:11;;;;;;;14.63;7.90;;;4.30;99.90;;;;;;5089837;28;20443;-54
2021/11/28 09:12:37;;;;;;;13.57;8.30;;;4.30;99.90;;;;;;5090303;28;20512;-54
2021/11/28 09:15:03;;;;;;;14.70;8.37;;;4.30;99.90;;;;;;5077804;28;20475;-54
2021/11/28 09:17:29;;;;;;;13.05;8.00;;;4.30;99.90;;;;;;5070041;28;20494;-54
2021/11/28 09:20:05;;;;;;;13.60;7.70;;;4.30;99.90;;;;;;5069737;28;20508;-58
2021/11/28 09:25:01;;;;;;;16.58;8.10;;;4.50;99.90;;;;;;5074274;28;20405;-54
2021/11/28 09:27:27;;;;;;;12.50;7.50;;;4.50;99.90;;;;;;5089918;28;20421;-54
2021/11/28 09:29:53;;;;;;;14.68;8.55;;;4.40;99.90;;;;;;5090666;28;20402;-54
2021/11/28 09:32:18;;;;;;;13.23;7.65;;;4.40;99.90;;;;;;5089510;28;21172;-54
2021/11/28 09:34:45;;;;;;;13.50;7.70;;;4.50;99.90;;;;;;5090178;28;20394;-54
2021/11/28 09:37:11;;;;;;;14.52;7.18;;;4.60;99.90;;;;;;5088997;28;20392;-54
2021/11/28 09:39:42;;;;;;;11.65;7.35;;;4.80;99.90;;;;;;5090023;28;20398;-53
2021/11/28 09:42:10;;;;;;;14.40;7.85;;;4.70;99.90;;;;;;5089153;28;20382;-54
2021/11/28 09:44:38;;;;;;;14.30;7.27;;;4.60;99.90;;;;;;5071866;28;20394;-54
2021/11/28 09:47:06;;;;;;;10.50;6.72;;;4.60;99.90;;;;;;5089038;28;20382;-54
2021/11/28 09:49:32;;;;;;;12.07;7.20;;;4.60;99.90;;;;;;5071714;28;20397;-55
2021/11/28 09:52:05;;;;;;;12.85;7.63;;;4.70;99.90;;;;;;5089243;28;20414;-59
2021/11/28 09:54:35;;;;;;;16.90;10.10;;;4.60;99.90;;;;;;5089615;28;20412;-55
2021/11/28 09:57:01;;;;;;;15.00;9.27;;;4.50;99.90;;;;;;5088967;28;20512;-55
2021/11/28 09:59:27;;;;;;;12.55;7.60;;;4.50;99.90;;;;;;5089884;28;20453;-53
2021/11/28 10:01:55;;;;;;;14.18;8.30;;;4.60;99.90;;;;;;5089318;28;20385;-52
2021/11/28 10:04:21;;;;;;;12.80;7.17;;;4.60;99.90;;;;;;5089005;28;20462;-53
2021/11/28 10:06:47;;;;;;;14.02;7.95;;;4.70;99.90;;;;;;5089528;28;20378;-52
2021/11/28 10:09:13;;;;;;;13.63;7.05;;;4.70;99.90;;;;;;5082784;28;20392;-53
2021/11/28 10:11:43;;;;;;;9.80;6.07;;;4.80;99.90;;;;;;5081643;28;20452;-52
2021/11/28 10:14:14;;;;;;;11.60;7.00;;;4.90;99.90;;;;;;5077811;28;20390;-53
2021/11/28 10:16:41;;;;;;;10.20;6.40;;;4.80;99.90;;;;;;5080592;28;20398;-52
2021/11/28 10:19:08;;;;;;;10.88;6.63;;;4.90;99.90;;;;;;5076397;28;20774;-52
2021/11/28 10:21:34;;;;;;;10.82;6.75;;;5.00;99.90;;;;;;5077974;28;20395;-53
2021/11/28 10:24:12;;;;;;;10.88;6.80;;;5.10;99.90;;;;;;5078177;28;20384;-58
2021/11/28 10:27:00;;;;;;;13.20;7.30;;;5.10;99.90;;;;;;5080178;28;20402;-53
2021/11/28 10:29:31;;;;;;;12.18;6.90;;;5.00;99.90;;;;;;5082265;28;20520;-52
2021/11/28 10:31:59;;;;;;;12.23;7.38;;;4.90;99.90;;;;;;5080920;28;20420;-53
2021/11/28 10:34:29;;;;;;;10.90;6.50;;;4.80;99.90;;;;;;5078855;28;20393;-53
2021/11/28 10:37:15;;;;;;;11.40;7.20;;;4.80;99.90;;;;;;5079369;28;20379;-52
2021/11/28 10:39:58;;;;;;;13.10;8.63;;;4.80;99.90;;;;;;5080134;28;20476;-53
2021/11/28 10:42:30;;;;;;;14.98;7.70;;;4.70;99.90;;;;;;5080754;28;20404;-52
2021/11/28 10:45:02;;;;;;;13.00;7.90;;;6.10;99.90;;;;;;5077833;28;20884;-52
2021/11/28 10:47:39;;;;;;;12.18;7.00;;;4.50;99.90;;;;;;5080234;28;20384;-53
2021/11/28 10:50:07;;;;;;;15.77;8.55;;;4.50;99.90;;;;;;5078596;28;20397;-54
2021/11/28 10:52:32;;;;;;;18.30;13.05;;;4.50;99.90;;;;;;5079926;28;20413;-55
2021/11/28 10:54:58;;;;;;;22.50;14.57;;;4.50;99.90;;;;;;5068875;28;20387;-52
2021/11/28 10:57:25;;;;;;;12.48;8.45;;;4.50;99.90;;;;;;5081740;28;20481;-53
2021/11/28 10:59:59;;;;;;;12.88;7.63;;;4.50;99.90;;;;;;5068656;28;20861;-52
2021/11/28 11:02:33;;;;;;;14.10;8.40;;;4.40;99.90;;;;;;5071904;28;20511;-53
2021/11/28 11:05:01;;;;;;;12.02;7.82;;;4.50;99.90;;;;;;5089096;28;20418;-53
2021/11/28 11:07:39;;;;;;;12.27;7.63;;;4.60;99.90;;;;;;5089544;28;20534;-52
2021/11/28 11:10:19;;;;;;;11.95;6.60;;;4.60;99.90;;;;;;5091975;28;20397;-58
2021/11/28 11:12:45;;;;;;;10.63;5.80;;;4.70;99.90;;;;;;5089794;28;20520;-53
2021/11/28 11:15:15;;;;;;;12.32;6.88;;;4.70;99.90;;;;;;5087593;28;20876;-53
2021/11/28 11:17:56;;;;;;;10.68;7.00;;;4.80;99.90;;;;;;5079650;28;20384;-54
2021/11/28 11:20:27;;;;;;;10.60;7.00;;;4.80;99.90;;;;;;5053560;28;20475;-53
2021/11/28 11:22:53;;;;;;;10.90;6.70;;;4.90;99.90;;;;;;5054353;28;20392;-53
2021/11/28 11:25:20;;;;;;;10.77;6.28;;;5.10;99.90;;;;;;5071446;28;20518;-52
2021/11/28 11:27:48;;;;;;;10.38;6.07;;;5.10;99.90;;;;;;5054079;28;20391;-55
2021/11/28 11:30:26;;;;;;;11.55;6.30;;;5.00;99.90;;;;;;5080400;28;20468;-53
2021/11/28 11:32:55;;;;;;;10.20;6.32;;;5.00;99.90;;;;;;5092049;28;20409;-53
2021/11/28 11:35:27;;;;;;;12.10;6.93;;;5.00;99.90;;;;;;5091489;28;20374;-52
2021/11/28 11:37:59;;;;;;;11.40;5.90;;;5.00;99.90;;;;;;5092151;28;20473;-53
2021/11/28 11:40:25;;;;;;;10.70;6.30;;;5.00;99.90;;;;;;5085534;28;20404;-53
2021/11/28 11:42:52;;;;;;;12.40;5.88;;;5.00;99.90;;;;;;5085798;28;20390;-54
2021/11/28 11:45:25;;;;;;;14.70;7.13;;;5.00;99.90;;;;;;5083311;28;20428;-53
2021/11/28 11:47:52;;;;;;;11.85;6.55;;;5.00;99.90;;;;;;5085074;28;20398;-54
2021/11/28 11:50:20;;;;;;;10.77;6.00;;;5.00;99.90;;;;;;5081186;28;20447;-53
2021/11/28 11:52:46;;;;;;;12.73;6.00;;;5.00;99.90;;;;;;5085403;28;20457;-53
2021/11/28 11:55:29;;;;;;;12.70;6.20;;;5.00;99.90;;;;;;5082057;28;20807;-53
2021/11/28 11:58:23;;;;;;;11.38;5.25;;;5.10;99.90;;;;;;5079717;28;20386;-54
2021/11/28 12:01:00;;;;;;;10.65;5.85;;;5.00;99.90;;;;;;5055376;28;20404;-53
2021/11/28 12:03:26;;;;;;;10.90;6.43;;;5.00;99.90;;;;;;5080387;28;20470;-52
2021/11/28 12:05:56;;;;;;;10.15;5.93;;;5.10;99.90;;;;;;5080386;28;20374;-53
2021/11/28 12:08:28;;;;;;;9.40;5.22;;;5.00;99.90;;;;;;5082153;28;20380;-52
2021/11/28 12:11:11;;;;;;;15.85;7.80;;;5.00;99.90;;;;;;5079685;28;20485;-53
2021/11/28 12:13:40;;;;;;;15.25;9.43;;;5.00;99.90;;;;;;5081191;28;20412;-53
2021/11/28 12:16:06;;;;;;;17.33;7.78;;;5.00;99.90;;;;;;5080653;28;20759;-57
2021/11/28 12:18:34;;;;;;;9.40;5.50;;;5.10;99.90;;;;;;5079924;28;20390;-53
2021/11/28 12:21:04;;;;;;;11.57;5.75;;;5.00;99.90;;;;;;5079777;28;20387;-53
2021/11/28 12:23:49;;;;;;;9.60;5.30;;;5.10;99.90;;;;;;5079787;28;21186;-52
2021/11/28 12:26:27;;;;;;;10.20;5.60;;;5.00;99.90;;;;;;5062558;28;20396;-53
2021/11/28 12:29:16;;;;;;;10.77;5.20;;;5.10;99.90;;;;;;5080897;28;20510;-53
2021/11/28 12:31:47;;;;;;;14.00;8.63;;;5.10;99.90;;;;;;5028526;28;20840;-54
2021/11/28 12:34:16;;;;;;;13.10;6.20;;;5.20;99.90;;;;;;5079892;28;20380;-54
2021/11/28 12:37:01;;;;;;;13.20;6.82;;;5.20;99.90;;;;;;5079522;28;20493;-53
2021/11/28 12:39:27;;;;;;;208.40;50.35;;;5.20;99.90;;;;;;5079259;28;20380;-53
2021/11/28 12:42:19;;;;;;;8.30;4.43;;;5.30;99.90;;;;;;5080098;28;20414;-53
2021/11/28 12:44:48;;;;;;;8.35;4.47;;;5.20;99.90;;;;;;5078619;28;20382;-53
2021/11/28 12:47:14;;;;;;;8.30;3.65;;;5.20;99.90;;;;;;5081517;28;20402;-52
2021/11/28 12:49:49;;;;;;;8.50;4.30;;;5.20;99.90;;;;;;5081013;28;20388;-53
2021/11/28 12:52:17;;;;;;;8.48;4.70;;;5.20;99.90;;;;;;5079064;28;20410;-53
2021/11/28 12:57:43;;;;;;;35.90;13.75;;;5.40;99.90;;;;;;5077713;28;20387;-53